Time;durP1;ratioP1;P1;durP2;ratioP2;P2;SDS_P1;SDS_P2;PMS_P1;PMS_P2;Temp;Humidity;BMP_temperature;BMP_pressure;BME280_temperature;BME280_humidity;BME280_pressure;Samples;Min_cycle;Max_cycle;Signal;HPM_P1;HPM_P2
2021/11/24 00:01:57;;;;;;;49.80;20.60;;;3.40;99.90;;;;;;4451547;27;658711;-71
2021/11/24 00:04:45;;;;;;;39.40;19.47;;;3.50;99.90;;;;;;4461231;27;658388;-70
2021/11/24 00:07:32;;;;;;;43.93;20.17;;;3.40;99.90;;;;;;4452425;27;659832;-70
2021/11/24 00:10:20;;;;;;;39.53;18.33;;;3.50;99.90;;;;;;4471231;27;658680;-70
2021/11/24 00:13:08;;;;;;;39.47;17.77;;;3.40;99.90;;;;;;4480275;27;659446;-70
2021/11/24 00:15:56;;;;;;;38.33;18.47;;;3.40;99.90;;;;;;4450642;27;658703;-70
2021/11/24 00:18:45;;;;;;;39.87;18.03;;;3.40;99.90;;;;;;4468709;27;659468;-70
2021/11/24 00:21:33;;;;;;;43.17;19.37;;;3.40;99.90;;;;;;4454363;27;659868;-71
2021/11/24 00:24:21;;;;;;;39.63;18.33;;;3.30;99.90;;;;;;4453862;27;658485;-71
2021/11/24 00:27:08;;;;;;;42.30;19.43;;;3.30;99.90;;;;;;4457804;28;659530;-71
2021/11/24 00:29:56;;;;;;;36.67;17.57;;;3.30;99.90;;;;;;4442063;28;658443;-70
2021/11/24 00:32:44;;;;;;;40.80;19.63;;;3.30;99.90;;;;;;4459045;28;658705;-70
2021/11/24 00:35:33;;;;;;;41.40;19.93;;;3.30;99.90;;;;;;4442344;28;658454;-70
2021/11/24 00:38:20;;;;;;;43.83;19.00;;;3.30;99.90;;;;;;4440964;28;658630;-70
2021/11/24 00:41:08;;;;;;;51.80;21.93;;;3.30;99.90;;;;;;4461352;27;659244;-70
2021/11/24 00:43:56;;;;;;;54.33;23.23;;;3.40;99.90;;;;;;4445662;27;659473;-71
2021/11/24 00:46:43;;;;;;;62.10;25.67;;;3.40;99.90;;;;;;4433089;28;659219;-70
2021/11/24 00:49:31;;;;;;;59.83;25.03;;;3.40;99.90;;;;;;4412774;28;658391;-70
2021/11/24 00:52:20;;;;;;;60.57;23.30;;;3.40;99.90;;;;;;4434891;28;659589;-69
2021/11/24 00:55:09;;;;;;;59.33;24.80;;;3.40;99.90;;;;;;4399076;28;659632;-70
2021/11/24 00:57:56;;;;;;;52.97;22.80;;;3.40;99.90;;;;;;4387760;28;658809;-70
2021/11/24 01:00:44;;;;;;;54.73;24.73;;;3.30;99.90;;;;;;4413557;28;659137;-70
2021/11/24 01:03:32;;;;;;;54.30;23.77;;;3.30;99.90;;;;;;4398984;28;658523;-70
2021/11/24 01:06:19;;;;;;;57.87;24.27;;;3.40;99.90;;;;;;4421827;28;658867;-70
2021/11/24 01:09:08;;;;;;;66.40;27.53;;;3.40;99.90;;;;;;4400447;28;659127;-70
2021/11/24 01:11:56;;;;;;;70.07;29.70;;;3.30;99.90;;;;;;4393635;28;658451;-70
2021/11/24 01:14:44;;;;;;;70.87;30.47;;;3.30;99.90;;;;;;4424976;28;659803;-70
2021/11/24 01:17:32;;;;;;;66.43;29.25;;;3.30;99.90;;;;;;4396996;28;659084;-70
2021/11/24 01:20:19;;;;;;;71.07;31.43;;;3.30;99.90;;;;;;4418528;28;658649;-70
2021/11/24 01:23:07;;;;;;;69.70;31.27;;;3.20;99.90;;;;;;4402786;28;658575;-70
2021/11/24 01:25:56;;;;;;;75.87;31.80;;;3.20;99.90;;;;;;4422370;28;658493;-70
2021/11/24 01:28:43;;;;;;;63.93;28.00;;;3.20;99.90;;;;;;4405762;28;659066;-70
2021/11/24 01:31:31;;;;;;;70.33;30.77;;;3.20;99.90;;;;;;4412881;28;658419;-70
2021/11/24 01:34:19;;;;;;;63.23;29.10;;;3.20;99.90;;;;;;4429583;28;659522;-70
2021/11/24 01:37:06;;;;;;;63.07;28.57;;;3.20;99.90;;;;;;4408104;28;658550;-70
2021/11/24 01:39:54;;;;;;;52.73;24.63;;;3.20;99.90;;;;;;4428597;28;659276;-70
2021/11/24 01:42:43;;;;;;;55.60;26.02;;;3.10;99.90;;;;;;4399100;28;658823;-70
2021/11/24 01:45:31;;;;;;;52.27;25.70;;;3.10;99.90;;;;;;4417762;28;660848;-70
2021/11/24 01:48:18;;;;;;;47.43;22.27;;;3.10;99.90;;;;;;4450305;28;658589;-70
2021/11/24 01:51:06;;;;;;;55.20;25.77;;;3.20;99.90;;;;;;4429260;28;659610;-70
2021/11/24 01:53:53;;;;;;;60.33;27.45;;;3.20;99.90;;;;;;4444540;28;659466;-70
2021/11/24 01:56:41;;;;;;;64.07;29.20;;;3.10;99.90;;;;;;4428776;28;658637;-70
2021/11/24 01:59:31;;;;;;;74.60;31.57;;;3.20;99.90;;;;;;4449286;28;659267;-70
2021/11/24 02:02:18;;;;;;;72.57;32.47;;;3.10;99.90;;;;;;4421229;27;659702;-70
2021/11/24 02:05:07;;;;;;;74.27;31.70;;;3.10;99.90;;;;;;4429495;28;658925;-70
2021/11/24 02:07:54;;;;;;;67.27;30.47;;;3.10;99.90;;;;;;4444732;28;659081;-70
2021/11/24 02:10:42;;;;;;;69.87;31.37;;;3.10;99.90;;;;;;4424375;28;659122;-70
2021/11/24 02:13:29;;;;;;;66.40;30.80;;;3.00;99.90;;;;;;4447959;27;658323;-70
2021/11/24 02:16:18;;;;;;;68.73;29.87;;;3.10;99.90;;;;;;4431320;28;658374;-70
2021/11/24 02:19:06;;;;;;;59.73;25.67;;;3.10;99.90;;;;;;4417894;28;658762;-70
2021/11/24 02:21:55;;;;;;;60.57;28.63;;;3.00;99.90;;;;;;4434168;28;659148;-70
2021/11/24 02:24:44;;;;;;;52.45;24.35;;;3.00;99.90;;;;;;4420258;28;659619;-70
2021/11/24 02:27:32;;;;;;;54.80;25.77;;;2.90;99.90;;;;;;4409385;28;658805;-70
2021/11/24 02:30:19;;;;;;;50.77;25.50;;;2.90;99.90;;;;;;4437257;28;659016;-70
2021/11/24 02:33:07;;;;;;;55.47;26.67;;;3.00;99.90;;;;;;4407833;28;658592;-70
2021/11/24 02:35:54;;;;;;;59.70;27.07;;;2.90;99.90;;;;;;4437524;28;658636;-70
2021/11/24 02:38:44;;;;;;;60.37;27.93;;;2.90;99.90;;;;;;4419392;28;659237;-70
2021/11/24 02:41:31;;;;;;;67.77;31.33;;;3.00;99.90;;;;;;4419022;28;658147;-71
2021/11/24 02:44:20;;;;;;;66.80;29.77;;;2.90;99.90;;;;;;4435212;28;658831;-70
2021/11/24 02:47:10;;;;;;;60.67;29.40;;;2.90;99.90;;;;;;4416121;28;658882;-69
2021/11/24 02:50:00;;;;;;;67.00;29.90;;;2.90;99.90;;;;;;4417345;28;659797;-70
2021/11/24 02:52:48;;;;;;;60.10;26.97;;;2.90;99.90;;;;;;4415750;28;659544;-70
2021/11/24 02:55:37;;;;;;;69.63;31.00;;;2.90;99.90;;;;;;4433094;28;660099;-70
2021/11/24 02:58:25;;;;;;;63.40;29.55;;;2.90;99.90;;;;;;4441208;28;658778;-70
2021/11/24 03:01:12;;;;;;;70.90;31.53;;;2.90;99.90;;;;;;4416643;28;659397;-70
2021/11/24 03:04:00;;;;;;;61.13;26.03;;;2.90;99.90;;;;;;4441026;28;658487;-70
2021/11/24 03:06:47;;;;;;;60.20;28.10;;;2.90;99.90;;;;;;4420951;28;659914;-71
2021/11/24 03:09:36;;;;;;;57.43;26.87;;;2.80;99.90;;;;;;4444317;28;658574;-70
2021/11/24 03:12:24;;;;;;;60.97;26.93;;;2.80;99.90;;;;;;4442181;28;659102;-70
2021/11/24 03:15:12;;;;;;;66.13;26.47;;;2.90;99.90;;;;;;4417325;28;658992;-70
2021/11/24 03:18:00;;;;;;;70.23;29.97;;;2.80;99.90;;;;;;4439528;28;659019;-70
2021/11/24 03:20:47;;;;;;;62.17;28.47;;;2.80;99.90;;;;;;4416728;28;659353;-70
2021/11/24 03:23:35;;;;;;;73.40;31.50;;;2.80;99.90;;;;;;4440048;28;658478;-70
2021/11/24 03:26:22;;;;;;;74.10;31.90;;;2.80;99.90;;;;;;4417075;28;660439;-70
2021/11/24 03:29:12;;;;;;;77.80;33.67;;;2.90;99.90;;;;;;4443764;28;658484;-70
2021/11/24 03:31:59;;;;;;;67.23;30.30;;;2.90;99.90;;;;;;4414956;28;658588;-70
2021/11/24 03:34:47;;;;;;;62.57;30.13;;;2.90;99.90;;;;;;4413269;28;658748;-70
2021/11/24 03:37:34;;;;;;;52.67;24.83;;;2.90;99.90;;;;;;4442626;28;658344;-70
2021/11/24 03:40:23;;;;;;;55.93;27.07;;;2.90;99.90;;;;;;4415855;28;658875;-70
2021/11/24 03:43:11;;;;;;;58.57;26.70;;;2.90;99.90;;;;;;4415584;28;658875;-70
2021/11/24 03:46:00;;;;;;;56.77;26.73;;;2.80;99.90;;;;;;4440834;28;658762;-70
2021/11/24 03:48:48;;;;;;;55.13;23.80;;;2.80;99.90;;;;;;4425369;28;659735;-71
2021/11/24 03:51:36;;;;;;;55.00;26.23;;;2.80;99.90;;;;;;4434582;28;658752;-70
2021/11/24 03:54:24;;;;;;;60.27;27.37;;;2.80;99.90;;;;;;4439418;28;658762;-70
2021/11/24 03:57:11;;;;;;;61.17;28.50;;;2.80;99.90;;;;;;4417393;28;658841;-70
2021/11/24 03:59:59;;;;;;;60.23;27.10;;;2.80;99.90;;;;;;4443205;28;658718;-69
2021/11/24 04:02:48;;;;;;;59.20;26.93;;;2.70;99.90;;;;;;4420755;28;658608;-70
2021/11/24 04:05:36;;;;;;;55.30;25.80;;;2.80;99.90;;;;;;4423169;28;658661;-70
2021/11/24 04:08:24;;;;;;;55.33;26.57;;;2.80;99.90;;;;;;4439552;28;660567;-70
2021/11/24 04:11:11;;;;;;;49.83;22.33;;;2.80;99.90;;;;;;4427601;28;660146;-70
2021/11/24 04:13:59;;;;;;;52.47;26.60;;;2.80;99.90;;;;;;4433734;28;659884;-70
2021/11/24 04:16:47;;;;;;;45.25;22.92;;;2.80;99.90;;;;;;4415007;28;658686;-70
2021/11/24 04:19:36;;;;;;;43.53;22.13;;;2.70;99.90;;;;;;4446795;28;658946;-70
2021/11/24 04:22:23;;;;;;;48.33;25.67;;;2.80;99.90;;;;;;4416576;28;659137;-70
2021/11/24 04:25:12;;;;;;;50.43;25.97;;;2.80;99.90;;;;;;4420654;28;658952;-70
2021/11/24 04:28:00;;;;;;;46.00;24.80;;;2.80;99.90;;;;;;4442468;28;658794;-70
2021/11/24 04:30:47;;;;;;;46.70;23.73;;;2.80;99.90;;;;;;4416231;28;659662;-70
2021/11/24 04:33:35;;;;;;;40.60;21.40;;;2.80;99.90;;;;;;4438007;28;658592;-70
2021/11/24 04:36:24;;;;;;;46.93;24.43;;;2.80;99.90;;;;;;4421778;28;660281;-70
2021/11/24 04:39:11;;;;;;;51.73;25.30;;;2.80;99.90;;;;;;4414723;28;659612;-70
2021/11/24 04:41:59;;;;;;;44.33;23.50;;;2.70;99.90;;;;;;4440793;28;658911;-71
2021/11/24 04:44:47;;;;;;;45.30;23.23;;;2.80;99.90;;;;;;4412588;28;660151;-70
2021/11/24 04:47:34;;;;;;;44.87;23.77;;;2.80;99.90;;;;;;4438887;28;659011;-70
2021/11/24 04:50:22;;;;;;;47.00;23.13;;;2.80;99.90;;;;;;4420095;28;659058;-70
2021/11/24 04:53:11;;;;;;;51.50;23.47;;;2.70;99.90;;;;;;4435469;28;658724;-70
2021/11/24 04:55:59;;;;;;;46.37;25.63;;;2.70;99.90;;;;;;4417722;28;658895;-70
2021/11/24 04:58:51;;;;;;;50.60;23.63;;;2.70;99.90;;;;;;4418328;28;659102;-70
2021/11/24 05:01:39;;;;;;;44.93;22.13;;;2.80;99.90;;;;;;4416504;28;658695;-70
2021/11/24 05:04:28;;;;;;;53.13;24.77;;;2.80;99.90;;;;;;4426005;28;659808;-70
2021/11/24 05:07:16;;;;;;;57.70;27.33;;;2.70;99.90;;;;;;4420072;28;659012;-71
2021/11/24 05:10:06;;;;;;;44.40;22.57;;;2.70;99.90;;;;;;4439850;28;659876;-70
2021/11/24 05:12:53;;;;;;;60.80;25.10;;;2.70;99.90;;;;;;4421728;28;659888;-70
2021/11/24 05:15:42;;;;;;;54.90;26.17;;;2.80;99.90;;;;;;4419768;28;659002;-70
2021/11/24 05:18:34;;;;;;;51.03;24.10;;;2.80;99.90;;;;;;4439544;28;659389;-70
2021/11/24 05:21:25;;;;;;;49.27;25.33;;;2.70;99.90;;;;;;4426349;28;658673;-70
2021/11/24 05:24:13;;;;;;;42.17;21.50;;;2.80;99.90;;;;;;4414619;28;659424;-70
2021/11/24 05:27:02;;;;;;;47.00;23.00;;;2.70;99.90;;;;;;4415021;28;658916;-71
2021/11/24 05:29:50;;;;;;;46.10;23.10;;;2.70;99.90;;;;;;4431580;28;658962;-70
2021/11/24 05:32:37;;;;;;;40.93;20.50;;;2.80;99.90;;;;;;4416212;28;659184;-70
2021/11/24 05:35:26;;;;;;;42.23;22.03;;;2.70;99.90;;;;;;4433224;28;658700;-71
2021/11/24 05:38:13;;;;;;;45.20;21.40;;;2.70;99.90;;;;;;4438490;28;659076;-70
2021/11/24 05:41:01;;;;;;;50.47;23.80;;;2.70;99.90;;;;;;4417895;28;658681;-70
2021/11/24 05:43:57;;;;;;;40.27;19.20;;;2.70;99.90;;;;;;4440903;28;659276;-71
2021/11/24 05:46:47;;;;;;;44.00;22.27;;;2.70;99.90;;;;;;4414160;28;659199;-70
2021/11/24 05:49:36;;;;;;;52.23;23.97;;;2.70;99.90;;;;;;4418729;28;659035;-70
2021/11/24 05:52:23;;;;;;;44.30;24.60;;;2.70;99.90;;;;;;4418779;28;659503;-70
2021/11/24 05:55:11;;;;;;;52.73;25.33;;;2.70;99.90;;;;;;4413815;28;658891;-70
2021/11/24 05:57:58;;;;;;;44.87;22.97;;;2.70;99.90;;;;;;4435839;28;659030;-70
2021/11/24 06:00:48;;;;;;;45.90;21.97;;;2.70;99.90;;;;;;4421447;28;658603;-70
2021/11/24 06:03:36;;;;;;;46.83;23.57;;;2.70;99.90;;;;;;4429757;28;658480;-70
2021/11/24 06:06:23;;;;;;;46.63;23.57;;;2.70;99.90;;;;;;4434076;28;659721;-70
2021/11/24 06:09:11;;;;;;;48.97;23.67;;;2.60;99.90;;;;;;4417505;28;658829;-70
2021/11/24 06:11:59;;;;;;;41.73;21.93;;;2.60;99.90;;;;;;4436064;28;659627;-70
2021/11/24 06:14:46;;;;;;;39.10;21.30;;;2.60;99.90;;;;;;4417093;28;658379;-69
2021/11/24 06:17:35;;;;;;;43.00;22.53;;;2.70;99.90;;;;;;4440755;28;659639;-70
2021/11/24 06:20:23;;;;;;;46.43;23.93;;;2.70;99.90;;;;;;4412758;28;660197;-70
2021/11/24 06:23:11;;;;;;;38.00;21.47;;;2.70;99.90;;;;;;4427182;28;658676;-70
2021/11/24 06:25:59;;;;;;;43.17;22.00;;;2.70;99.90;;;;;;4444533;28;658869;-70
2021/11/24 06:28:46;;;;;;;44.57;23.33;;;2.70;99.90;;;;;;4427537;28;659035;-70
2021/11/24 06:31:35;;;;;;;44.67;23.97;;;2.70;99.90;;;;;;4442132;28;659077;-70
2021/11/24 06:34:24;;;;;;;47.67;24.93;;;2.70;99.90;;;;;;4422793;28;658358;-70
2021/11/24 06:37:12;;;;;;;44.40;23.10;;;2.70;99.90;;;;;;4413723;28;659101;-69
2021/11/24 06:40:00;;;;;;;47.83;25.33;;;2.70;99.90;;;;;;4435961;28;658493;-69
2021/11/24 06:42:47;;;;;;;47.00;24.50;;;2.80;99.90;;;;;;4415642;28;659649;-69
2021/11/24 06:45:35;;;;;;;47.73;24.33;;;2.80;99.90;;;;;;4433012;28;659036;-70
2021/11/24 06:48:23;;;;;;;50.50;26.17;;;2.80;99.90;;;;;;4413427;28;659808;-69
2021/11/24 06:51:12;;;;;;;51.50;24.77;;;2.80;99.90;;;;;;4433855;28;658693;-70
2021/11/24 06:54:00;;;;;;;42.73;21.93;;;2.80;99.90;;;;;;4464114;28;659075;-70
2021/11/24 06:56:48;;;;;;;47.67;23.40;;;2.80;99.90;;;;;;4423661;28;659903;-70
2021/11/24 06:59:36;;;;;;;45.25;23.48;;;2.80;99.90;;;;;;4421839;28;658974;-71
2021/11/24 07:02:23;;;;;;;45.60;22.83;;;2.80;99.90;;;;;;4440799;28;659377;-70
2021/11/24 07:05:12;;;;;;;38.40;21.53;;;2.80;99.90;;;;;;4417758;28;658764;-70
2021/11/24 07:08:02;;;;;;;52.83;25.27;;;2.80;99.90;;;;;;4433303;28;658564;-70
2021/11/24 07:10:50;;;;;;;39.47;22.20;;;2.80;99.90;;;;;;4439876;28;658284;-70
2021/11/24 07:13:38;;;;;;;47.43;23.70;;;2.90;99.90;;;;;;4410388;28;659842;-70
2021/11/24 07:16:26;;;;;;;47.57;23.30;;;3.00;99.90;;;;;;4421937;28;658471;-70
2021/11/24 07:19:15;;;;;;;41.50;23.07;;;3.00;99.90;;;;;;4439292;28;659341;-70
2021/11/24 07:22:03;;;;;;;44.67;22.37;;;3.00;99.90;;;;;;4421834;28;659422;-70
2021/11/24 07:24:52;;;;;;;50.30;24.50;;;3.00;99.90;;;;;;4415007;28;658503;-69
2021/11/24 07:27:41;;;;;;;50.50;24.53;;;3.00;99.90;;;;;;4441317;28;659001;-71
2021/11/24 07:30:28;;;;;;;49.00;25.03;;;3.00;99.90;;;;;;4448139;28;658688;-70
2021/11/24 07:33:16;;;;;;;52.30;24.77;;;3.00;99.90;;;;;;4425253;28;658718;-70
2021/11/24 07:36:04;;;;;;;49.33;23.87;;;3.00;99.90;;;;;;4445583;28;659479;-70
2021/11/24 07:38:52;;;;;;;46.70;23.20;;;3.00;99.90;;;;;;4433387;28;658698;-70
2021/11/24 07:41:41;;;;;;;46.07;23.13;;;3.00;99.90;;;;;;4443868;28;658536;-70
2021/11/24 07:44:28;;;;;;;45.23;22.90;;;3.10;99.90;;;;;;4421060;28;659044;-69
2021/11/24 07:47:16;;;;;;;44.37;21.33;;;3.10;99.90;;;;;;4419637;28;658574;-70
2021/11/24 07:50:04;;;;;;;46.83;22.33;;;3.20;99.90;;;;;;4449958;28;659635;-70
2021/11/24 07:52:52;;;;;;;41.57;20.90;;;3.20;99.90;;;;;;4419437;28;659093;-70
2021/11/24 07:55:39;;;;;;;40.87;22.67;;;3.20;99.90;;;;;;4436574;28;658769;-70
2021/11/24 07:58:29;;;;;;;45.20;22.07;;;3.20;99.90;;;;;;4415205;28;659426;-70
2021/11/24 08:01:16;;;;;;;46.83;22.80;;;3.20;99.90;;;;;;4424789;28;659056;-70
2021/11/24 08:04:05;;;;;;;39.17;21.43;;;3.30;99.90;;;;;;4440615;28;659087;-71
2021/11/24 08:06:52;;;;;;;45.70;20.93;;;3.30;99.90;;;;;;4415478;28;659747;-70
2021/11/24 08:09:40;;;;;;;42.20;21.40;;;3.30;99.90;;;;;;4433308;28;658558;-70
2021/11/24 08:12:28;;;;;;;43.33;21.00;;;3.30;99.90;;;;;;4420056;28;659802;-70
2021/11/24 08:15:17;;;;;;;37.67;20.77;;;3.30;99.90;;;;;;4420419;28;658730;-70
2021/11/24 08:18:05;;;;;;;41.57;20.50;;;3.40;99.90;;;;;;4441029;28;659509;-70
2021/11/24 08:20:53;;;;;;;43.63;20.50;;;3.40;99.90;;;;;;4420887;28;659569;-70
2021/11/24 08:23:41;;;;;;;42.83;19.98;;;3.50;99.90;;;;;;4426734;28;659074;-70
2021/11/24 08:26:28;;;;;;;46.13;20.43;;;3.50;99.90;;;;;;4439168;28;659216;-70
2021/11/24 08:29:16;;;;;;;41.20;20.30;;;3.50;99.90;;;;;;4425414;27;658902;-70
2021/11/24 08:32:06;;;;;;;35.87;18.77;;;3.60;99.90;;;;;;4438368;28;659028;-70
2021/11/24 08:34:54;;;;;;;36.07;17.97;;;3.60;99.90;;;;;;4420334;28;659669;-70
2021/11/24 08:37:41;;;;;;;37.63;19.13;;;3.60;99.90;;;;;;4422001;28;658909;-70
2021/11/24 08:40:29;;;;;;;45.70;19.77;;;3.70;99.90;;;;;;4440226;28;659473;-70
2021/11/24 08:43:17;;;;;;;35.60;18.87;;;3.70;99.90;;;;;;4419402;28;658618;-70
2021/11/24 08:46:04;;;;;;;38.47;20.17;;;3.70;99.90;;;;;;4443270;28;658809;-70
2021/11/24 08:48:54;;;;;;;39.73;21.27;;;3.80;99.90;;;;;;4419671;28;659408;-70
2021/11/24 08:51:41;;;;;;;46.10;20.47;;;3.90;99.90;;;;;;4415750;28;658856;-70
2021/11/24 08:54:31;;;;;;;31.60;17.03;;;3.90;99.90;;;;;;4440554;28;658879;-69
2021/11/24 08:57:19;;;;;;;41.63;20.03;;;3.90;99.90;;;;;;4409375;28;659452;-70
2021/11/24 09:00:08;;;;;;;33.13;16.83;;;4.00;99.90;;;;;;4423223;28;658690;-70
2021/11/24 09:02:56;;;;;;;37.80;19.50;;;4.10;99.90;;;;;;4419601;28;658656;-70
2021/11/24 09:05:46;;;;;;;37.40;17.87;;;4.20;99.90;;;;;;4440403;28;659244;-70
2021/11/24 09:08:34;;;;;;;37.27;18.43;;;4.30;99.90;;;;;;4422293;28;659874;-70
2021/11/24 09:11:22;;;;;;;29.67;16.03;;;4.40;99.90;;;;;;4419005;28;660090;-70
2021/11/24 09:14:10;;;;;;;35.38;17.83;;;4.30;99.90;;;;;;4438269;28;658998;-70
2021/11/24 09:16:57;;;;;;;34.03;17.53;;;4.30;99.90;;;;;;4415574;27;659976;-70
2021/11/24 09:19:46;;;;;;;31.33;16.57;;;4.20;99.90;;;;;;4434580;28;658921;-70
2021/11/24 09:22:36;;;;;;;35.17;18.37;;;4.20;99.90;;;;;;4439251;28;658785;-70
2021/11/24 09:25:26;;;;;;;34.77;17.53;;;4.30;99.90;;;;;;4417484;28;659717;-69
2021/11/24 09:28:14;;;;;;;34.10;17.40;;;4.40;99.90;;;;;;4420106;28;659541;-70
2021/11/24 09:31:02;;;;;;;33.63;18.30;;;4.40;99.90;;;;;;4418712;28;658704;-70
2021/11/24 09:33:50;;;;;;;32.67;16.87;;;4.40;99.90;;;;;;4435270;28;658336;-70
2021/11/24 09:36:40;;;;;;;25.67;14.17;;;4.40;99.90;;;;;;4410243;28;659879;-70
2021/11/24 09:39:29;;;;;;;28.93;15.40;;;4.40;99.90;;;;;;4425227;28;659172;-70
2021/11/24 09:42:18;;;;;;;33.00;14.47;;;4.40;99.90;;;;;;4426757;28;659135;-70
2021/11/24 09:45:06;;;;;;;28.43;13.87;;;4.40;99.90;;;;;;4413209;28;658491;-71
2021/11/24 09:47:55;;;;;;;26.13;13.07;;;4.50;99.90;;;;;;4421470;28;659490;-70
2021/11/24 09:50:43;;;;;;;30.57;15.57;;;4.50;99.90;;;;;;4392643;28;659494;-70
2021/11/24 09:53:30;;;;;;;32.40;15.57;;;4.60;99.90;;;;;;4421457;28;659442;-70
2021/11/24 09:56:20;;;;;;;31.33;14.73;;;4.70;99.90;;;;;;4442036;28;659814;-70
2021/11/24 09:59:07;;;;;;;27.73;14.83;;;4.70;99.90;;;;;;4414247;28;659557;-70
2021/11/24 10:01:56;;;;;;;31.60;14.20;;;4.70;99.90;;;;;;4418527;28;658846;-70
2021/11/24 10:04:44;;;;;;;26.60;14.43;;;4.80;99.90;;;;;;4436522;28;659519;-70
2021/11/24 10:07:33;;;;;;;31.70;13.50;;;4.80;99.90;;;;;;4412290;28;658442;-70
2021/11/24 10:10:21;;;;;;;33.87;15.17;;;4.80;99.90;;;;;;4409728;28;658755;-70
2021/11/24 10:13:13;;;;;;;28.65;14.00;;;4.90;99.90;;;;;;4429730;28;659399;-70
2021/11/24 10:16:01;;;;;;;25.87;13.27;;;4.90;99.90;;;;;;4403150;28;659264;-70
2021/11/24 10:18:58;;;;;;;27.67;13.38;;;4.90;99.90;;;;;;4429813;28;659852;-70
2021/11/24 10:21:56;;;;;;;24.67;12.87;;;5.00;99.90;;;;;;4403968;28;658812;-70
2021/11/24 10:24:44;;;;;;;23.20;12.57;;;5.10;99.90;;;;;;4408694;28;658863;-71
2021/11/24 10:27:37;;;;;;;26.60;13.03;;;5.10;99.90;;;;;;4412391;28;658814;-70
2021/11/24 10:30:28;;;;;;;28.40;13.33;;;5.20;99.90;;;;;;4411506;28;658859;-70
2021/11/24 10:33:16;;;;;;;19.40;10.43;;;5.20;99.90;;;;;;4421985;28;658841;-70
2021/11/24 10:36:08;;;;;;;21.65;12.02;;;5.20;99.90;;;;;;4427513;28;659433;-70
2021/11/24 10:38:56;;;;;;;22.47;11.40;;;5.10;99.90;;;;;;4385874;28;659059;-70
2021/11/24 10:41:44;;;;;;;23.60;11.70;;;5.10;99.90;;;;;;4421489;28;658621;-70
2021/11/24 10:44:32;;;;;;;23.03;11.03;;;5.10;99.90;;;;;;4415459;28;658844;-70
2021/11/24 10:47:23;;;;;;;20.97;10.97;;;5.10;99.90;;;;;;4467773;28;658692;-70
2021/11/24 10:50:11;;;;;;;18.60;8.60;;;5.20;99.90;;;;;;4469517;28;658601;-71
2021/11/24 10:52:59;;;;;;;18.67;8.57;;;5.20;99.90;;;;;;4462796;28;658084;-70
2021/11/24 10:55:46;;;;;;;19.90;9.20;;;5.10;99.90;;;;;;4422143;28;658201;-70
2021/11/24 10:58:38;;;;;;;16.60;8.47;;;5.20;99.90;;;;;;4479216;28;658124;-70
2021/11/24 11:01:26;;;;;;;23.67;9.90;;;5.20;99.90;;;;;;4429095;28;658970;-70
2021/11/24 11:04:15;;;;;;;15.57;8.20;;;5.20;99.90;;;;;;4471987;28;659004;-70
2021/11/24 11:07:10;;;;;;;19.20;7.43;;;5.20;99.90;;;;;;4449341;28;657801;-70
2021/11/24 11:10:03;;;;;;;18.83;7.90;;;5.10;99.90;;;;;;4445201;28;658260;-70
2021/11/24 11:12:53;;;;;;;17.50;9.10;;;5.10;99.90;;;;;;4429343;28;657618;-70
2021/11/24 11:15:41;;;;;;;15.77;8.57;;;5.10;99.90;;;;;;4451156;27;657794;-70
2021/11/24 11:18:31;;;;;;;16.37;8.53;;;5.00;99.90;;;;;;4459588;28;657980;-70
2021/11/24 11:21:20;;;;;;;17.17;8.83;;;5.10;99.90;;;;;;4452033;27;658210;-70
2021/11/24 11:24:08;;;;;;;16.97;8.47;;;5.10;99.90;;;;;;4439908;28;658117;-70
2021/11/24 11:26:56;;;;;;;16.23;7.83;;;5.10;99.90;;;;;;4444760;28;657587;-70
2021/11/24 11:29:44;;;;;;;15.53;7.63;;;5.10;99.90;;;;;;4464290;27;657288;-70
2021/11/24 11:32:32;;;;;;;19.20;8.67;;;5.20;99.90;;;;;;4437662;28;657987;-70
2021/11/24 11:35:20;;;;;;;19.43;9.23;;;5.20;99.90;;;;;;4464086;27;657736;-70
2021/11/24 11:38:09;;;;;;;14.77;6.63;;;5.20;99.90;;;;;;4457103;27;658845;-70
2021/11/24 11:40:57;;;;;;;15.80;7.20;;;5.20;99.90;;;;;;4450595;27;657602;-70
2021/11/24 11:43:46;;;;;;;15.87;8.23;;;5.20;99.90;;;;;;4469614;27;657485;-70
2021/11/24 11:46:34;;;;;;;19.90;8.37;;;5.20;99.90;;;;;;4450796;27;658135;-70
2021/11/24 11:49:23;;;;;;;17.07;8.07;;;5.10;99.90;;;;;;4446213;27;658126;-70
2021/11/24 11:52:12;;;;;;;12.40;5.80;;;5.10;99.90;;;;;;4453810;27;657758;-71
2021/11/24 11:55:21;;;;;;;10.83;5.67;;;5.10;99.90;;;;;;4468112;27;657147;-70
2021/11/24 11:58:25;;;;;;;11.87;6.57;;;5.10;99.90;;;;;;4449607;27;657915;-71
2021/11/24 12:01:14;;;;;;;14.53;7.10;;;5.10;99.90;;;;;;4413643;27;657925;-70
2021/11/24 12:04:10;;;;;;;13.47;6.83;;;5.20;99.90;;;;;;4453069;27;657400;-70
2021/11/24 12:07:08;;;;;;;13.80;7.40;;;5.10;99.90;;;;;;4429047;27;657686;-70
2021/11/24 12:09:59;;;;;;;14.17;6.90;;;5.10;99.90;;;;;;4434775;27;657229;-71
2021/11/24 12:12:48;;;;;;;12.43;6.87;;;5.10;99.90;;;;;;4445465;27;657898;-70
2021/11/24 12:15:36;;;;;;;11.63;6.43;;;5.10;99.90;;;;;;4459374;27;657889;-70
2021/11/24 12:18:23;;;;;;;11.27;6.03;;;5.10;99.90;;;;;;4473746;27;658537;-70
2021/11/24 12:21:11;;;;;;;10.43;5.57;;;5.10;99.90;;;;;;4445459;27;658295;-70
2021/11/24 12:24:06;;;;;;;13.40;5.33;;;5.10;99.90;;;;;;4462459;28;657381;-70
2021/11/24 12:26:55;;;;;;;10.63;5.60;;;5.00;99.90;;;;;;4435036;27;658474;-70
2021/11/24 12:29:48;;;;;;;13.30;6.83;;;5.00;99.90;;;;;;4442458;28;658408;-70
2021/11/24 12:32:36;;;;;;;11.80;5.90;;;5.00;99.90;;;;;;4428097;28;657822;-69
2021/11/24 12:35:24;;;;;;;12.10;5.90;;;5.00;99.90;;;;;;4460860;28;657912;-70
2021/11/24 12:38:11;;;;;;;9.70;5.27;;;5.00;99.90;;;;;;4445078;28;657574;-70
2021/11/24 12:41:00;;;;;;;9.83;5.27;;;4.90;99.90;;;;;;4468456;27;657064;-70
2021/11/24 12:43:49;;;;;;;17.10;6.37;;;4.90;99.90;;;;;;4439073;27;657389;-70
2021/11/24 12:46:39;;;;;;;9.57;5.47;;;4.90;99.90;;;;;;4439851;27;657764;-70
2021/11/24 12:49:27;;;;;;;11.40;5.50;;;4.90;99.90;;;;;;4443457;27;656908;-70
2021/11/24 12:52:15;;;;;;;10.37;5.10;;;4.80;99.90;;;;;;4462412;27;657835;-70
2021/11/24 12:55:04;;;;;;;11.70;5.10;;;4.80;99.90;;;;;;4453773;27;657408;-70
2021/11/24 12:57:52;;;;;;;10.73;5.33;;;4.80;99.90;;;;;;4445242;27;658464;-70
2021/11/24 13:00:40;;;;;;;12.00;6.37;;;4.80;99.90;;;;;;4472218;27;657439;-70
2021/11/24 13:03:30;;;;;;;18.93;8.03;;;4.80;99.90;;;;;;4447963;27;658073;-70
2021/11/24 13:06:18;;;;;;;13.03;6.83;;;4.70;99.90;;;;;;4443000;27;658576;-70
2021/11/24 13:09:16;;;;;;;15.77;7.63;;;4.60;99.90;;;;;;4446938;28;657815;-70
2021/11/24 13:12:05;;;;;;;15.03;7.70;;;4.60;99.90;;;;;;4449090;27;659298;-70
2021/11/24 13:14:54;;;;;;;16.77;7.50;;;4.60;99.90;;;;;;4449197;27;658245;-70
2021/11/24 13:17:43;;;;;;;16.40;9.17;;;4.60;99.90;;;;;;4442400;27;657455;-71
2021/11/24 13:20:32;;;;;;;18.55;10.07;;;4.50;99.90;;;;;;4445666;28;657862;-70
2021/11/24 13:23:20;;;;;;;17.27;8.23;;;4.50;99.90;;;;;;4466031;27;658535;-71
2021/11/24 13:26:08;;;;;;;15.27;7.97;;;4.50;99.90;;;;;;4446849;27;657804;-71
2021/11/24 13:28:56;;;;;;;13.13;7.20;;;4.50;99.90;;;;;;4446277;27;657461;-70
2021/11/24 13:31:43;;;;;;;10.93;5.50;;;4.50;99.90;;;;;;4466428;27;658032;-70
2021/11/24 13:34:31;;;;;;;13.00;6.67;;;4.50;99.90;;;;;;4441760;27;657479;-70
2021/11/24 13:37:26;;;;;;;13.63;6.57;;;4.50;99.90;;;;;;4473195;27;659156;-70
2021/11/24 13:40:14;;;;;;;18.03;7.80;;;4.50;99.90;;;;;;4445566;27;657603;-70
2021/11/24 13:43:02;;;;;;;22.53;9.50;;;4.50;99.90;;;;;;4447919;27;657826;-70
2021/11/24 13:45:49;;;;;;;24.13;10.43;;;4.50;99.90;;;;;;4473869;27;657392;-70
2021/11/24 13:48:37;;;;;;;24.13;9.17;;;4.40;99.90;;;;;;4444354;27;658555;-70
2021/11/24 13:51:25;;;;;;;18.93;8.33;;;4.50;99.90;;;;;;4464324;27;657425;-70
2021/11/24 13:54:15;;;;;;;16.23;8.70;;;4.50;99.90;;;;;;4442805;27;658346;-70
2021/11/24 13:57:05;;;;;;;15.83;8.50;;;4.50;99.90;;;;;;4444647;28;657724;-70
2021/11/24 13:59:59;;;;;;;21.37;8.57;;;4.50;99.90;;;;;;4438320;28;658809;-70
2021/11/24 14:02:47;;;;;;;20.57;9.33;;;4.40;99.90;;;;;;4413718;28;657807;-70
2021/11/24 14:05:36;;;;;;;22.00;9.70;;;4.50;99.90;;;;;;4452426;28;658326;-70
2021/11/24 14:08:23;;;;;;;24.83;10.80;;;4.40;99.90;;;;;;4462740;27;658743;-70
2021/11/24 14:11:28;;;;;;;21.70;11.50;;;4.50;99.90;;;;;;4460818;27;658794;-70
2021/11/24 14:14:16;;;;;;;22.60;11.00;;;4.40;99.90;;;;;;4446762;27;659309;-70
2021/11/24 14:17:04;;;;;;;19.50;11.23;;;4.40;99.90;;;;;;4467757;27;659862;-70